SABESARE

Guest
Details From SABE - Aeroparque Jorge Newbery
To SARE - RESISTENCIA
Flight Number -
Tags decoded
Created
Modified
Stats Distance 429 nm / 794 km
Max Altitude 0 ft / 0 m
Waypoints 5
Social Downloads 1
Likes 0
Share VATSIM

Download

Looking for another format? Having issues loading an existing format? Contact us
Advertisement - Login to hide

Notes

Requested: SABE LANDA GUA DAMIS SARE

Route

SABE LANDA GUA DAMIS SARE

ID Type Via Altitude Latitude Longitude Leg Dist Tot Dist Heading (true) Name
O SABE APT - 0 ft / 0 m -34.55941˚ -58.41575˚ - 0 nm - Aeroparque Jorge Newbery
LANDA FIX - 0 ft / 0 m -33.90806˚ -58.57528˚ 39 nm 39 nm 349° / 349° -
GUA VOR - 0 ft / 0 m -33.00972˚ -58.61417˚ 53 nm 93 nm 358° / 358° GUALEGUAYCHU VOR-DME
DAMIS FIX - 0 ft / 0 m -28.86056˚ -58.94917˚ 249 nm 343 nm 356° / 356° -
O SARE APT - 0 ft / 0 m -27.44999˚ -59.05613˚ 84 nm 428 nm 356° / 356° RESISTENCIA

Altitude Profile

Advertisement - Login to hide

Weather


0- 5 10 15 20 25 30 35+ Temperature / ° C

Clouds and Precipitation
Forecast for 2017-12-16 06:00 UTC. Updated 37 minutes ago

Ground ~20,000 ft ~40,000 ft Winds

SABE

Details ICAO SABE (AEP)
Name Aeroparque Jorge Newbery
Region Argentina
Timezone Unknown (UTC+0.0)
Stats Elevation 17 ft / 5 m (AMSL)
Location -34.559414° -58.415749°
Runways 1
Magnetic Variation 8.981° W

METAR

SABE 160100Z 32004KT CAVOK 30/14 Q1006

Decode

TAF

TAF SABE 152300Z 1600/1624 36010KT CAVOK TX36/1618Z TN26/1609Z BECMG 1610/1612 36015G25KT BECMG 1613/1615 SCT035 FEW050TCU BKN100 BECMG 1618/1620 7000 TSRA SCT030 FEW045CB BKN050 PROB40 TEMPO 1621/1624 27015KT 4000 TSRA BKN020 FEW040CB OVC040

Decode

Departure Runways

ID Width Length Bearing (true) Bearing (mag) Surface Threshold Offset Overrun Length
13 131 ft / 40 m 6,882 ft / 2,098 m 123.87° 132.85° Concrete 0 ft / 0 m 791 ft / 241 m
31 131 ft / 40 m 6,882 ft / 2,098 m 303.86° 312.84° Concrete 991 ft / 302 m 0 ft / 0 m

SARE

Details ICAO SARE (RES)
Name RESISTENCIA
Region Argentina
Timezone America/Argentina/Cordoba (UTC-3.0)
Stats Elevation 173 ft / 53 m (AMSL)
Location -27.449986° -59.056125°
Runways 1
Magnetic Variation 12.049° W

METAR

SARE 160100Z 08009KT CAVOK 32/21 Q1005

Decode

TAF

TAF SARE 152300Z 1600/1624 05005KT CAVOK TX38/1618Z TN23/1609Z BECMG 1614/1616 07015KT 9999 SCT035TCU BECMG 1621/1623 CAVOK

Decode

Destination Runways

ID Width Length Bearing (true) Bearing (mag) Surface Threshold Offset Overrun Length
03 147 ft / 45 m 9,126 ft / 2,782 m 20.81° 32.86° Asphalt 0 ft / 0 m 115 ft / 35 m
21 147 ft / 45 m 9,126 ft / 2,782 m 200.81° 212.86° Asphalt 0 ft / 0 m 115 ft / 35 m

Approach Navaids

Runway Type Ident Frequency Range Bearing (true) Bearing (mag) Slope Elevation
21 Localiser RS 110.30 MHz 18 nm / 33 km 200.74° 212.79° - 174 ft / 53 m (AMSL)
21 Glidescope RS 110.30 MHz 10 nm / 19 km 200.81° 212.86° 3.00° 174 ft / 53 m (AMSL)

Popular Alternatives